Time;durP1;ratioP1;P1;durP2;ratioP2;P2;SDS_P1;SDS_P2;PMS_P1;PMS_P2;Temp;Humidity;BMP_temperature;BMP_pressure;BME280_temperature;BME280_humidity;BME280_pressure;Samples;Min_cycle;Max_cycle;Signal;HPM_P1;HPM_P2
2022/10/04 00:02:32;;;;;;;11.87;6.73;;;;;;;11.03;100.00;102180.59;5261692;28;20049;-74
2022/10/04 00:05:10;;;;;;;17.75;6.85;;;;;;;11.00;100.00;102183.16;5263608;28;20032;-74
2022/10/04 00:07:50;;;;;;;15.13;6.47;;;;;;;11.10;100.00;102191.94;5262764;28;20033;-74
2022/10/04 00:10:30;;;;;;;16.02;6.65;;;;;;;11.07;100.00;102190.16;5245717;28;20029;-74
2022/10/04 00:13:14;;;;;;;12.75;6.82;;;;;;;11.06;100.00;102191.06;5262145;28;20025;-74
2022/10/04 00:15:49;;;;;;;12.40;6.70;;;;;;;11.04;100.00;102186.66;5263411;28;20039;-74
2022/10/04 00:18:36;;;;;;;14.90;7.55;;;;;;;11.00;100.00;102175.34;5262725;28;20060;-74
2022/10/04 00:21:08;;;;;;;13.40;7.25;;;;;;;10.93;100.00;102174.44;5261798;28;20461;-74
2022/10/04 00:23:43;;;;;;;16.85;7.25;;;;;;;10.92;100.00;102172.66;5262355;28;20071;-75
2022/10/04 00:26:37;;;;;;;12.65;7.05;;;;;;;10.87;100.00;102179.59;5263454;28;20036;-74
2022/10/04 00:29:29;;;;;;;14.10;7.45;;;;;;;10.77;100.00;102163.00;5262205;28;20078;-73
2022/10/04 00:32:06;;;;;;;15.02;7.28;;;;;;;10.71;100.00;102164.69;5262438;28;20464;-74
2022/10/04 00:34:49;;;;;;;11.40;7.25;;;;;;;10.71;100.00;102159.47;5262134;28;20025;-74
2022/10/04 00:37:22;;;;;;;;;;;;;;;10.68;100.00;102156.81;5245424;28;20357;-74
2022/10/04 00:40:16;;;;;;;14.10;7.50;;;;;;;10.56;100.00;102157.56;5262016;28;20284;-74
2022/10/04 00:43:11;;;;;;;13.02;7.32;;;;;;;10.49;100.00;102151.41;5262734;28;20075;-74
2022/10/04 00:45:51;;;;;;;17.77;7.50;;;;;;;10.43;100.00;102155.72;5262476;28;20475;-74
2022/10/04 00:48:40;;;;;;;13.60;8.18;;;;;;;10.41;100.00;102155.69;5262388;28;20033;-74
2022/10/04 00:51:25;;;;;;;16.95;8.18;;;;;;;10.39;100.00;102160.03;5261916;28;20365;-74
2022/10/04 00:54:13;;;;;;;17.50;8.65;;;;;;;10.39;100.00;102157.41;5262316;28;20029;-74
2022/10/04 00:56:51;;;;;;;17.17;8.10;;;;;;;10.33;100.00;102154.75;5262511;28;20033;-74
2022/10/04 00:59:31;;;;;;;11.57;7.75;;;;;;;10.31;100.00;102156.44;5262758;28;20029;-74
2022/10/04 01:02:21;;;;;;;14.30;7.35;;;;;;;10.28;100.00;102152.06;5261632;28;20024;-74
2022/10/04 01:05:03;;;;;;;13.07;6.78;;;;;;;10.18;100.00;102135.44;5260607;28;20060;-73
2022/10/04 01:08:03;;;;;;;18.90;9.00;;;;;;;10.14;100.00;102130.19;5262215;28;20095;-74
2022/10/04 01:11:06;;;;;;;15.77;8.45;;;;;;;10.07;100.00;102129.25;5261400;28;20044;-74
2022/10/04 01:13:46;;;;;;;11.65;7.45;;;;;;;10.13;100.00;102121.50;5262701;28;20558;-74
2022/10/04 01:16:29;;;;;;;15.85;8.38;;;;;;;10.05;100.00;102110.13;5261839;28;20112;-73
2022/10/04 01:19:20;;;;;;;;;;;;;;;10.11;100.00;102112.81;5262280;28;20045;-73
2022/10/04 01:22:03;;;;;;;13.80;8.40;;;;;;;10.08;100.00;102112.78;5260628;28;19927;-74
2022/10/04 01:24:40;;;;;;;11.38;7.88;;;;;;;10.02;100.00;102118.78;5260547;28;20029;-73
2022/10/04 01:27:34;;;;;;;13.52;8.77;;;;;;;10.01;100.00;102114.44;5260844;28;20127;-74
2022/10/04 01:30:11;;;;;;;18.33;8.68;;;;;;;9.90;100.00;102104.75;5262117;28;20029;-73
2022/10/04 01:32:43;;;;;;;10.73;8.05;;;;;;;9.94;100.00;102109.16;5262069;28;20095;-73
2022/10/04 01:35:15;;;;;;;14.07;8.43;;;;;;;9.84;100.00;102097.75;5263162;28;20025;-74
2022/10/04 01:37:46;;;;;;;13.80;8.80;;;;;;;9.78;100.00;102098.53;5248125;28;20032;-73
2022/10/04 01:40:17;;;;;;;17.03;8.50;;;;;;;9.78;100.00;102106.34;5264362;28;20110;-73
2022/10/04 01:42:59;;;;;;;12.67;8.43;;;;;;;9.71;100.00;102101.94;5247688;28;20029;-73
2022/10/04 01:45:39;;;;;;;15.02;8.45;;;;;;;9.65;100.00;102102.72;5265197;28;20037;-74
2022/10/04 01:48:33;;;;;;;18.23;9.07;;;;;;;9.71;100.00;102090.63;5265841;28;20029;-72
2022/10/04 01:51:18;;;;;;;17.95;9.43;;;;;;;9.66;100.00;102088.00;5265177;28;20431;-72
2022/10/04 01:54:02;;;;;;;13.73;9.50;;;;;;;9.70;100.00;102094.13;5264372;28;20448;-72
2022/10/04 01:56:58;;;;;;;16.15;9.93;;;;;;;9.70;100.00;102094.97;5265594;28;20029;-72
2022/10/04 01:59:45;;;;;;;16.33;8.93;;;;;;;9.61;100.00;102089.66;5265535;28;20025;-71
2022/10/04 02:02:26;;;;;;;16.90;9.60;;;;;;;9.71;100.00;102085.41;5263808;28;20106;-73
2022/10/04 02:05:00;;;;;;;12.95;8.63;;;;;;;9.64;100.00;102084.47;5264691;28;20075;-72
2022/10/04 02:07:35;;;;;;;14.93;9.57;;;;;;;9.64;100.00;102085.38;5264876;28;20025;-72
2022/10/04 02:10:17;;;;;;;14.80;9.88;;;;;;;9.57;100.00;102090.47;5264207;28;20025;-72
2022/10/04 02:12:53;;;;;;;14.10;9.23;;;;;;;9.57;100.00;102083.53;5265539;28;20021;-72
2022/10/04 02:15:25;;;;;;;14.20;8.82;;;;;;;9.48;100.00;102071.28;5264962;28;20021;-72
2022/10/04 02:17:58;;;;;;;15.88;9.50;;;;;;;9.42;100.00;102071.22;5264904;28;20029;-73
2022/10/04 02:20:30;;;;;;;;;;;;;;;9.38;100.00;102064.22;5247465;28;20102;-73
2022/10/04 02:23:02;;;;;;;18.70;9.20;;;;;;;9.28;100.00;102062.34;5264307;28;19913;-72
2022/10/04 02:25:36;;;;;;;15.93;9.73;;;;;;;9.31;100.00;102058.06;5263622;28;20480;-73
2022/10/04 02:28:12;;;;;;;17.35;11.30;;;;;;;9.18;100.00;102053.56;5265037;28;20025;-73
2022/10/04 02:33:42;;;;;;;18.00;10.82;;;;;;;9.21;100.00;102042.28;5265116;28;20400;-73
2022/10/04 02:36:16;;;;;;;20.73;11.68;;;;;;;9.21;100.00;102043.19;5263441;28;20456;-73
2022/10/04 02:39:00;;;;;;;17.70;12.25;;;;;;;9.20;100.00;102036.22;5265082;28;20051;-73
2022/10/04 02:41:48;;;;;;;19.75;12.55;;;;;;;9.15;100.00;102027.50;5264462;28;20457;-73
2022/10/04 02:44:29;;;;;;;17.33;12.43;;;;;;;9.07;100.00;102018.72;5262797;28;20079;-73
2022/10/04 02:47:13;;;;;;;19.67;12.02;;;;;;;9.05;100.00;102021.31;5264564;28;20027;-73
2022/10/04 02:50:00;;;;;;;20.52;12.00;;;;;;;9.07;100.00;102019.59;5264348;28;20033;-73
2022/10/04 02:52:50;;;;;;;20.20;12.23;;;;;;;9.00;100.00;102003.88;5263979;28;20191;-73
2022/10/04 02:55:26;;;;;;;24.77;13.38;;;;;;;8.98;100.00;101990.84;5264942;28;20029;-72
2022/10/04 02:57:58;;;;;;;20.52;12.60;;;;;;;8.91;100.00;101987.28;5266382;28;20031;-73
2022/10/04 03:00:31;;;;;;;26.58;13.80;;;;;;;8.92;100.00;101985.59;5262780;28;20035;-73
2022/10/04 03:03:24;;;;;;;20.80;13.27;;;;;;;8.88;100.00;101991.59;5262728;28;20045;-72
2022/10/04 03:06:10;;;;;;;;;;;;;;;8.83;100.00;101978.53;5263532;28;20353;-72
2022/10/04 03:08:55;;;;;;;19.10;12.52;;;;;;;8.84;100.00;101980.28;5263907;28;19915;-72
2022/10/04 03:11:32;;;;;;;25.02;14.43;;;;;;;8.86;100.00;101973.38;5262624;28;20111;-72
2022/10/04 03:14:12;;;;;;;21.20;13.77;;;;;;;8.74;100.00;101970.59;5263562;28;20464;-72
2022/10/04 03:16:46;;;;;;;23.23;14.63;;;;;;;8.76;100.00;101979.31;5264396;28;20029;-72
2022/10/04 03:19:19;;;;;;;22.25;14.30;;;;;;;8.79;100.00;101983.66;5263849;28;20500;-73
2022/10/04 03:21:54;;;;;;;20.92;14.98;;;;;;;8.75;100.00;101981.00;5263585;28;20089;-73
2022/10/04 03:24:33;;;;;;;29.20;15.02;;;;;;;8.68;100.00;101973.13;5263313;28;20033;-73
2022/10/04 03:27:08;;;;;;;24.98;14.77;;;;;;;8.68;100.00;101973.13;5262261;28;20460;-73
2022/10/04 03:29:43;;;;;;;18.63;13.77;;;;;;;8.68;100.00;101965.31;5263213;28;20566;-72
2022/10/04 03:32:16;;;;;;;25.15;14.63;;;;;;;8.62;100.00;101966.09;5262232;28;20449;-73
2022/10/04 03:34:55;;;;;;;23.73;15.75;;;;;;;8.63;100.00;101970.47;5264190;28;20032;-73
2022/10/04 03:37:29;;;;;;;23.77;14.18;;;;;;;8.63;100.00;101953.97;5263734;28;20025;-74
2022/10/04 03:40:03;;;;;;;21.08;13.60;;;;;;;8.54;100.00;101957.31;5263594;28;20333;-73
2022/10/04 03:42:37;;;;;;;18.27;12.43;;;;;;;8.53;100.00;101960.75;5261850;28;20033;-73
2022/10/04 03:45:16;;;;;;;23.05;13.77;;;;;;;8.55;100.00;101948.69;5263764;28;20079;-73
2022/10/04 03:47:49;;;;;;;22.25;13.52;;;;;;;8.51;100.00;101949.47;5263298;28;20031;-73
2022/10/04 03:50:25;;;;;;;25.42;14.02;;;;;;;8.52;100.00;101948.63;5263406;28;20029;-73
2022/10/04 03:53:03;;;;;;;22.17;13.65;;;;;;;8.48;100.00;101941.63;5263034;28;20094;-72
2022/10/04 03:55:44;;;;;;;19.48;13.07;;;;;;;8.53;100.00;101937.38;5263716;28;20078;-73
2022/10/04 03:58:17;;;;;;;19.73;13.10;;;;;;;8.48;100.00;101939.03;5262589;28;20116;-73
2022/10/04 04:01:00;;;;;;;;;;;;;;;8.46;100.00;101939.00;5261805;28;20045;-73
2022/10/04 04:03:44;;;;;;;25.00;14.27;;;;;;;8.45;100.00;101939.84;5261689;28;19970;-74
2022/10/04 04:06:18;;;;;;;21.58;12.88;;;;;;;8.39;100.00;101939.75;5261984;28;20092;-72
2022/10/04 04:08:53;;;;;;;19.70;13.40;;;;;;;8.39;100.00;101935.44;5261644;28;20103;-72
2022/10/04 04:11:26;;;;;;;23.77;14.35;;;;;;;8.36;100.00;101943.16;5262838;28;20530;-72
2022/10/04 04:14:06;;;;;;;22.75;13.80;;;;;;;8.37;100.00;101939.72;5261709;28;20032;-72
2022/10/04 04:16:37;;;;;;;25.80;14.88;;;;;;;8.36;100.00;101935.38;5262556;28;20025;-72
2022/10/04 04:19:15;;;;;;;21.23;14.27;;;;;;;8.36;100.00;101940.56;5262434;28;20056;-72
2022/10/04 04:21:48;;;;;;;16.67;13.93;;;;;;;8.36;100.00;101943.16;5262675;28;20025;-72
2022/10/04 04:24:31;;;;;;;24.13;12.93;;;;;;;8.37;100.00;101937.13;5262661;28;20031;-71
2022/10/04 04:27:04;;;;;;;20.95;12.90;;;;;;;8.31;100.00;101944.84;5263571;28;20437;-72
2022/10/04 04:29:48;;;;;;;24.30;13.43;;;;;;;8.30;100.00;101945.66;5263121;28;20044;-72
2022/10/04 04:32:39;;;;;;;19.25;13.25;;;;;;;8.27;100.00;101945.63;5262481;28;20033;-73
2022/10/04 04:35:30;;;;;;;18.58;12.55;;;;;;;8.26;100.00;101943.91;5261449;28;20033;-72
2022/10/04 04:38:15;;;;;;;22.35;13.43;;;;;;;8.26;100.00;101943.91;5261806;28;20051;-72
2022/10/04 04:40:47;;;;;;;19.55;13.05;;;;;;;8.22;100.00;101947.28;5262268;28;20064;-73
2022/10/04 04:43:19;;;;;;;23.43;13.87;;;;;;;8.15;100.00;101938.53;5262398;28;20060;-72
2022/10/04 04:45:51;;;;;;;26.47;14.00;;;;;;;8.14;100.00;101935.91;5262503;28;20468;-72
2022/10/04 04:48:22;;;;;;;19.30;13.85;;;;;;;8.13;100.00;101935.03;5262738;28;20048;-72
2022/10/04 04:50:56;;;;;;;22.27;14.37;;;;;;;8.17;100.00;101928.16;5262374;28;20029;-72
2022/10/04 04:53:29;;;;;;;21.80;14.57;;;;;;;8.22;100.00;101926.50;5262373;28;20111;-72
2022/10/04 04:56:04;;;;;;;24.85;14.02;;;;;;;8.23;100.00;101917.88;5262610;28;20037;-72
2022/10/04 04:58:37;;;;;;;24.60;14.40;;;;;;;8.21;100.00;101911.75;5262320;28;20032;-72
2022/10/04 05:01:30;;;;;;;23.63;14.30;;;;;;;8.18;100.00;101914.34;5262677;28;20029;-72
2022/10/04 05:04:14;;;;;;;22.50;14.05;;;;;;;8.22;100.00;101919.56;5261217;28;20055;-72
2022/10/04 05:06:59;;;;;;;20.65;14.13;;;;;;;8.19;100.00;101922.16;5261595;28;20033;-72
2022/10/04 05:09:34;;;;;;;23.05;14.35;;;;;;;8.18;100.00;101920.41;5263664;28;20346;-72
2022/10/04 05:12:10;;;;;;;22.77;14.45;;;;;;;8.21;100.00;101919.53;5266410;28;20044;-72
2022/10/04 05:14:48;;;;;;;26.35;14.88;;;;;;;8.16;100.00;101923.81;5266183;28;20027;-72
2022/10/04 05:17:26;;;;;;;22.35;13.57;;;;;;;8.13;100.00;101932.44;5266276;28;20073;-72
2022/10/04 05:19:59;;;;;;;20.95;13.57;;;;;;;8.08;100.00;101915.88;5267340;28;20079;-72
2022/10/04 05:22:31;;;;;;;24.38;13.18;;;;;;;8.06;100.00;101930.56;5266456;28;20424;-72
2022/10/04 05:25:12;;;;;;;21.70;12.53;;;;;;;8.04;100.00;101933.16;5269225;28;20041;-75
2022/10/04 05:27:44;;;;;;;19.17;12.60;;;;;;;7.96;100.00;101926.97;5266008;28;20067;-72
2022/10/04 05:30:37;;;;;;;20.00;11.88;;;;;;;7.95;100.00;101922.63;5264834;28;20464;-73
2022/10/04 05:33:13;;;;;;;21.50;12.43;;;;;;;7.94;100.00;101914.81;5265658;28;20037;-73
2022/10/04 05:36:10;;;;;;;19.83;12.27;;;;;;;7.89;100.00;101925.13;5265504;28;20521;-73
2022/10/04 05:39:01;;;;;;;19.05;11.50;;;;;;;7.88;100.00;101927.69;5264626;28;20037;-73
2022/10/04 05:41:54;;;;;;;18.13;11.05;;;;;;;7.84;100.00;101925.03;5265504;28;20037;-73
2022/10/04 05:44:28;;;;;;;18.50;10.73;;;;;;;7.85;100.00;101928.50;5251947;28;20037;-73
2022/10/04 05:47:02;;;;;;;31.27;10.98;;;;;;;7.87;100.00;101924.19;5265670;28;20033;-73
2022/10/04 05:49:42;;;;;;;19.52;10.82;;;;;;;7.87;100.00;101925.94;5265865;28;20112;-73
2022/10/04 05:52:29;;;;;;;24.52;10.77;;;;;;;7.85;100.00;101934.56;5266077;28;20041;-73
2022/10/04 05:55:25;;;;;;;19.20;9.60;;;;;;;7.88;100.00;101935.50;5265547;28;20453;-73
2022/10/04 05:58:18;;;;;;;22.08;9.85;;;;;;;7.89;100.00;101939.81;5264816;28;20380;-73
2022/10/04 06:01:29;;;;;;;17.65;10.68;;;;;;;7.93;100.00;101950.28;5264900;28;20087;-73
2022/10/04 06:04:10;;;;;;;16.98;9.90;;;;;;;7.99;100.00;101945.19;5265075;28;20416;-73
2022/10/04 06:06:57;;;;;;;19.27;8.77;;;;;;;8.05;100.00;101947.03;5265158;28;20033;-71
2022/10/04 06:09:50;;;;;;;16.17;9.60;;;;;;;8.11;100.00;101943.63;5264997;28;20468;-71
2022/10/04 06:12:54;;;;;;;15.75;9.15;;;;;;;8.15;100.00;101935.06;5264982;28;20035;-71
2022/10/04 06:15:31;;;;;;;15.73;9.07;;;;;;;8.25;100.00;101954.25;5265306;28;20461;-72
2022/10/04 06:18:31;;;;;;;17.63;8.60;;;;;;;8.28;100.00;101942.19;5264642;28;20132;-72
2022/10/04 06:21:24;;;;;;;16.63;9.20;;;;;;;8.41;100.00;101948.44;5264302;28;20120;-72
2022/10/04 06:24:10;;;;;;;16.98;9.15;;;;;;;8.42;100.00;101937.22;5262908;28;20025;-72
2022/10/04 06:26:48;;;;;;;17.25;8.63;;;;;;;8.54;100.00;101944.31;5264950;28;20029;-72
2022/10/04 06:29:26;;;;;;;14.63;8.85;;;;;;;8.56;100.00;101947.81;5264522;28;20025;-73
2022/10/04 06:32:18;;;;;;;17.20;8.35;;;;;;;8.67;100.00;101955.78;5264731;28;20037;-72
2022/10/04 06:35:14;;;;;;;14.90;7.70;;;;;;;8.70;100.00;101946.28;5264559;28;20040;-72
2022/10/04 06:37:58;;;;;;;17.85;8.65;;;;;;;8.73;100.00;101938.53;5262929;28;20536;-72
2022/10/04 06:40:35;;;;;;;15.20;7.95;;;;;;;8.79;100.00;101935.16;5262640;28;20060;-73
2022/10/04 06:43:37;;;;;;;17.73;7.07;;;;;;;8.86;100.00;101933.50;5264091;28;20057;-72
2022/10/04 06:46:16;;;;;;;17.23;8.57;;;;;;;8.86;100.00;101936.97;5263259;28;20115;-72
2022/10/04 06:49:10;;;;;;;16.63;7.50;;;;;;;8.81;100.00;101932.56;5264514;28;20035;-72
2022/10/04 06:51:44;;;;;;;20.88;7.32;;;;;;;8.81;100.00;101942.97;5264132;28;20041;-72
2022/10/04 06:54:26;;;;;;;13.95;6.95;;;;;;;8.79;100.00;101939.47;5263921;28;20033;-73
2022/10/04 06:57:17;;;;;;;17.85;7.68;;;;;;;8.78;100.00;101948.13;5263988;28;20453;-72
2022/10/04 07:00:02;;;;;;;22.52;7.93;;;;;;;8.76;100.00;101941.16;5263857;28;20103;-73
2022/10/04 07:02:46;;;;;;;19.15;8.07;;;;;;;8.71;100.00;101935.03;5263853;28;20040;-73
2022/10/04 07:05:31;;;;;;;13.95;7.13;;;;;;;8.71;100.00;101935.03;5262661;28;20369;-73
2022/10/04 07:08:11;;;;;;;11.85;7.05;;;;;;;8.76;100.00;101932.50;5263725;28;20029;-72
2022/10/04 07:10:55;;;;;;;15.43;7.13;;;;;;;8.75;100.00;101923.81;5263881;28;20021;-72
2022/10/04 07:13:26;;;;;;;13.45;7.63;;;;;;;8.78;100.00;101923.00;5263201;28;20044;-72
2022/10/04 07:16:12;;;;;;;15.67;7.60;;;;;;;8.85;100.00;101929.13;5263506;28;20033;-72
2022/10/04 07:19:03;;;;;;;15.20;6.95;;;;;;;8.93;100.00;101922.31;5262358;28;20106;-72
2022/10/04 07:21:43;;;;;;;15.25;7.60;;;;;;;9.08;100.00;101922.50;5263191;28;20463;-72
2022/10/04 07:24:25;;;;;;;14.80;8.02;;;;;;;9.21;100.00;101917.41;5263983;28;20029;-72
2022/10/04 07:27:00;;;;;;;17.50;6.90;;;;;;;9.33;100.00;101917.56;5262689;28;20125;-72
2022/10/04 07:29:36;;;;;;;12.18;7.82;;;;;;;9.44;100.00;101921.16;5262943;28;20033;-72
2022/10/04 07:32:16;;;;;;;14.15;7.60;;;;;;;9.59;100.00;101923.00;5262484;28;20522;-72
2022/10/04 07:34:58;;;;;;;10.65;6.97;;;;;;;9.72;100.00;101938.75;5263200;28;20205;-72
2022/10/04 07:37:35;;;;;;;13.63;6.97;;;;;;;9.81;100.00;101925.84;5263387;28;20028;-72
2022/10/04 07:40:21;;;;;;;13.27;6.85;;;;;;;9.95;100.00;101928.53;5263683;28;20033;-72
2022/10/04 07:42:58;;;;;;;10.63;6.53;;;;;;;10.10;100.00;101941.69;5263592;28;20129;-72
2022/10/04 07:45:39;;;;;;;12.43;6.43;;;;;;;10.17;100.00;101938.25;5263058;28;20028;-72
2022/10/04 07:48:22;;;;;;;10.98;6.63;;;;;;;10.31;100.00;101933.16;5261688;28;20063;-73
2022/10/04 07:51:26;;;;;;;15.57;6.68;;;;;;;10.42;100.00;101942.81;5261894;28;20087;-73
2022/10/04 07:54:24;;;;;;;16.35;6.82;;;;;;;10.57;100.00;101941.16;5262693;28;20119;-72
2022/10/04 07:57:00;;;;;;;14.35;7.45;;;;;;;10.73;99.90;101930.84;5263588;28;20364;-73
2022/10/04 07:59:37;;;;;;;11.55;7.03;;;;;;;10.82;98.71;101922.16;5262789;28;20031;-73
2022/10/04 08:02:39;;;;;;;13.35;6.80;;;;;;;10.97;97.85;101922.25;5261426;28;20029;-73
2022/10/04 08:05:17;;;;;;;11.48;6.78;;;;;;;11.06;96.27;101929.22;5262939;28;20025;-73
2022/10/04 08:08:07;;;;;;;11.25;5.93;;;;;;;11.20;96.10;101922.31;5262551;28;20029;-72
2022/10/04 08:11:30;;;;;;;14.68;6.07;;;;;;;11.29;95.76;101919.72;5262363;28;20124;-73
2022/10/04 08:14:17;;;;;;;11.63;6.22;;;;;;;11.41;95.58;101924.09;5218326;28;20052;-72
2022/10/04 08:16:55;;;;;;;15.00;6.10;;;;;;;11.50;94.06;101920.66;5262610;28;20029;-74
2022/10/04 08:19:42;;;;;;;12.00;7.25;;;;;;;11.59;94.13;101918.06;5261150;28;20060;-73
2022/10/04 08:22:32;;;;;;;10.88;6.28;;;;;;;11.82;94.18;101915.44;5262172;28;20025;-73
2022/10/04 08:25:19;;;;;;;16.08;6.78;;;;;;;11.94;93.61;101922.44;5263022;28;20061;-73
2022/10/04 08:31:02;;;;;;;12.85;6.53;;;;;;;12.24;90.49;101920.69;5262440;28;20029;-73
2022/10/04 08:34:01;;;;;;;11.32;5.75;;;;;;;12.35;90.74;101918.06;5262472;28;20167;-73
2022/10/04 08:36:50;;;;;;;15.00;7.25;;;;;;;12.23;89.22;101918.94;5261017;28;20041;-72
2022/10/04 08:39:28;;;;;;;8.68;5.70;;;;;;;12.13;88.81;101928.53;5262226;28;20361;-73
2022/10/04 08:42:17;;;;;;;15.43;6.35;;;;;;;12.06;88.14;101938.97;5262297;28;20028;-72
2022/10/04 08:45:25;;;;;;;9.40;5.55;;;;;;;12.13;89.35;101932.91;5266106;28;20037;-73
2022/10/04 08:48:05;;;;;;;10.60;6.55;;;;;;;12.46;88.89;101925.84;5266480;28;20504;-73
2022/10/04 08:50:55;;;;;;;14.20;7.00;;;;;;;12.77;86.49;101926.66;5264816;28;20115;-73
2022/10/04 08:53:36;;;;;;;13.88;6.50;;;;;;;13.06;85.35;101929.16;5266673;28;20108;-73
2022/10/04 08:56:19;;;;;;;15.05;6.30;;;;;;;13.28;83.03;101927.28;5264715;28;20075;-73
2022/10/04 08:58:58;;;;;;;10.90;5.90;;;;;;;13.41;81.76;101924.59;5265363;28;20087;-73
2022/10/04 09:01:51;;;;;;;11.77;5.90;;;;;;;13.71;81.46;101935.78;5264948;28;20083;-73
2022/10/04 09:04:57;;;;;;;10.55;6.45;;;;;;;14.06;80.72;101935.47;5266189;28;20068;-73
2022/10/04 09:07:41;;;;;;;12.77;6.78;;;;;;;13.92;76.62;101929.50;5266708;28;20075;-73
2022/10/04 09:11:06;;;;;;;15.43;7.05;;;;;;;14.31;76.69;101937.88;5265923;28;20029;-73
2022/10/04 09:13:53;;;;;;;11.30;6.22;;;;;;;14.47;75.71;101938.59;5182263;28;20526;-73
2022/10/04 09:17:16;;;;;;;11.35;6.32;;;;;;;14.46;74.58;101945.59;5265234;28;20029;-72
2022/10/04 09:20:31;;;;;;;11.05;6.22;;;;;;;14.80;74.05;101945.25;5264797;28;20052;-73
2022/10/04 09:23:30;;;;;;;15.55;6.22;;;;;;;15.17;73.14;101952.66;5264862;28;20040;-72
2022/10/04 09:26:19;;;;;;;11.38;7.10;;;;;;;15.29;71.69;101926.25;5264900;28;20159;-73
2022/10/04 09:29:17;;;;;;;11.90;6.40;;;;;;;15.62;71.53;101933.63;5265804;28;20087;-72
2022/10/04 09:32:10;;;;;;;12.20;5.75;;;;;;;16.11;70.41;101927.59;5228100;28;20037;-73
2022/10/04 09:34:44;;;;;;;;;;;;;;;16.76;68.87;101921.97;5265176;28;20033;-73
2022/10/04 09:37:18;;;;;;;12.68;5.63;;;;;;;16.65;66.24;101913.44;5265627;28;19966;-74
2022/10/04 09:40:05;;;;;;;10.82;5.68;;;;;;;16.57;66.38;101905.69;5264119;28;20087;-73
2022/10/04 09:42:42;;;;;;;9.38;5.68;;;;;;;16.67;65.06;101913.41;5265753;28;20075;-73
2022/10/04 09:45:35;;;;;;;14.07;5.32;;;;;;;16.64;63.87;101905.56;5264051;28;20025;-74
2022/10/04 09:48:13;;;;;;;;;;;;;;;17.41;63.30;101909.19;5265548;28;20040;-74
2022/10/04 09:50:57;;;;;;;11.95;4.95;;;;;;;17.79;65.93;101910.91;5264107;28;20348;-73
2022/10/04 09:53:43;;;;;;;10.20;5.32;;;;;;;18.12;61.14;101918.88;5265056;28;20076;-73
2022/10/04 09:56:30;;;;;;;10.38;4.82;;;;;;;18.39;59.67;101911.13;5263400;28;20029;-73
2022/10/04 09:59:01;;;;;;;9.35;5.05;;;;;;;18.22;57.94;101911.56;5265350;28;20037;-73
2022/10/04 10:01:51;;;;;;;10.23;4.93;;;;;;;18.55;58.82;101906.28;5264523;28;20032;-73
2022/10/04 10:04:48;;;;;;;9.35;4.57;;;;;;;18.61;58.82;101910.53;5264324;28;20033;-74
2022/10/04 10:07:53;;;;;;;9.15;4.47;;;;;;;18.54;59.45;101905.41;5265397;28;20031;-74
2022/10/04 10:13:56;;;;;;;9.50;4.05;;;;;;;18.98;58.54;101906.81;5264830;28;20037;-74
2022/10/04 10:16:52;;;;;;;11.00;4.65;;;;;;;19.45;56.65;101905.34;5264394;28;20079;-73
2022/10/04 10:19:37;;;;;;;13.35;5.05;;;;;;;19.39;54.31;101896.75;5264613;28;20072;-74
2022/10/04 10:22:43;;;;;;;10.68;4.85;;;;;;;20.25;53.74;101899.16;5265205;28;20060;-73
2022/10/04 10:25:39;;;;;;;12.05;5.07;;;;;;;20.31;51.90;101890.16;5264697;28;20033;-75
2022/10/04 10:28:27;;;;;;;8.55;4.55;;;;;;;20.75;50.84;101880.59;5264727;28;20025;-73
2022/10/04 10:31:34;;;;;;;8.68;4.40;;;;;;;21.48;52.18;101888.38;5264507;28;20029;-73
2022/10/04 10:34:32;;;;;;;8.38;4.25;;;;;;;21.89;51.03;101879.59;5263790;28;20025;-74
2022/10/04 10:37:15;;;;;;;7.78;4.53;;;;;;;21.68;48.58;101876.91;5264291;28;20033;-73
2022/10/04 10:39:53;;;;;;;9.68;4.22;;;;;;;21.34;48.02;101882.72;5263654;28;20035;-74
2022/10/04 10:42:52;;;;;;;8.63;4.22;;;;;;;22.08;49.76;101887.63;5264188;28;20037;-74
2022/10/04 10:45:48;;;;;;;10.38;4.22;;;;;;;22.93;47.48;101879.34;5263880;28;20468;-74
2022/10/04 10:48:34;;;;;;;8.68;3.97;;;;;;;23.15;43.70;101889.84;5262817;28;20513;-75
2022/10/04 10:51:24;;;;;;;9.23;4.07;;;;;;;24.10;44.27;101880.69;5262838;28;20052;-73
2022/10/04 10:54:19;;;;;;;10.25;4.50;;;;;;;24.83;41.30;101894.56;5263933;28;20036;-74
2022/10/04 10:57:09;;;;;;;9.55;3.83;;;;;;;24.59;42.70;101894.09;5264262;28;20033;-74
2022/10/04 11:00:04;;;;;;;9.90;3.38;;;;;;;23.71;43.66;101897.78;5263044;28;20029;-74
2022/10/04 11:02:47;;;;;;;9.02;3.50;;;;;;;22.46;42.29;101885.06;5262589;28;20406;-74
2022/10/04 11:05:47;;;;;;;7.32;4.15;;;;;;;22.08;45.94;101890.28;5263120;28;20028;-74
2022/10/04 11:08:47;;;;;;;10.05;4.15;;;;;;;23.93;44.15;101877.13;5263837;28;20131;-74
2022/10/04 11:11:38;;;;;;;9.00;4.18;;;;;;;23.87;42.71;101879.25;5262729;28;20361;-73
2022/10/04 11:14:47;;;;;;;7.78;3.95;;;;;;;23.23;43.83;101868.19;5262787;28;20384;-74
2022/10/04 11:17:48;;;;;;;9.57;4.30;;;;;;;24.61;41.87;101854.03;5263798;28;20104;-73
2022/10/04 11:20:54;;;;;;;9.10;4.15;;;;;;;24.61;41.41;101856.72;5262297;28;20098;-75
2022/10/04 11:23:44;;;;;;;7.07;3.97;;;;;;;24.94;41.66;101851.31;5263444;28;20394;-73
2022/10/04 11:26:37;;;;;;;7.38;3.22;;;;;;;25.78;39.89;101853.53;5262455;28;20043;-74
2022/10/04 11:29:23;;;;;;;7.57;3.53;;;;;;;26.84;38.06;101845.25;5246167;28;20411;-74
2022/10/04 11:32:31;;;;;;;8.32;3.28;;;;;;;26.95;35.90;101836.53;5263716;28;20479;-74
2022/10/04 11:35:05;;;;;;;6.82;3.28;;;;;;;26.52;35.69;101837.47;5263215;28;20036;-73
2022/10/04 11:37:52;;;;;;;7.85;3.40;;;;;;;26.87;36.04;101839.69;5261938;28;20420;-74
2022/10/04 11:40:45;;;;;;;5.72;3.25;;;;;;;27.88;36.49;101840.09;5263533;28;20035;-73
2022/10/04 11:43:31;;;;;;;8.55;4.20;;;;;;;25.35;37.53;101845.41;5263139;28;20104;-74
2022/10/04 11:46:11;;;;;;;9.48;3.42;;;;;;;25.48;36.56;101838.38;5261736;28;20041;-73
2022/10/04 11:49:07;;;;;;;6.82;3.20;;;;;;;26.77;36.20;101835.91;5261427;28;20106;-73
2022/10/04 11:52:01;;;;;;;7.88;3.10;;;;;;;28.02;36.91;101825.75;5262967;28;20033;-74
2022/10/04 11:54:56;;;;;;;6.93;3.33;;;;;;;28.98;34.85;101814.38;5263036;28;20032;-73
2022/10/04 11:57:34;;;;;;;10.35;3.42;;;;;;;28.85;31.91;101814.44;5261905;28;20424;-73
2022/10/04 12:00:14;;;;;;;8.55;3.47;;;;;;;27.61;34.17;101816.94;5263476;28;20051;-73
2022/10/04 12:02:52;;;;;;;7.10;3.05;;;;;;;27.42;31.96;101822.69;5261763;28;20068;-73
2022/10/04 12:05:55;;;;;;;6.75;3.28;;;;;;;26.91;34.66;101820.69;5263024;28;20040;-73
2022/10/04 12:09:04;;;;;;;4.75;2.95;;;;;;;26.42;36.17;101823.84;5262638;28;20104;-73
2022/10/04 12:14:52;;;;;;;5.55;3.05;;;;;;;23.59;38.12;101817.59;5262702;28;20037;-75
2022/10/04 12:18:04;;;;;;;6.55;3.17;;;;;;;24.08;38.84;101824.84;5261034;28;20029;-73
2022/10/04 12:21:01;;;;;;;8.40;3.28;;;;;;;23.53;39.84;101801.94;5263791;28;20045;-74
2022/10/04 12:24:13;;;;;;;6.60;2.95;;;;;;;23.19;39.77;101806.31;5262578;28;20029;-74
2022/10/04 12:27:16;;;;;;;6.82;2.60;;;;;;;24.28;39.66;101802.47;5249150;28;20533;-74
2022/10/04 12:30:05;;;;;;;;;;;;;;;25.46;36.64;101802.06;5262904;28;20074;-74
2022/10/04 12:33:11;;;;;;;6.32;3.17;;;;;;;24.52;38.62;101799.38;5262565;28;19912;-74
2022/10/04 12:36:05;;;;;;;6.25;3.95;;;;;;;25.00;38.30;101800.25;5262263;28;20029;-74
2022/10/04 12:38:48;;;;;;;6.60;2.97;;;;;;;25.89;38.50;101793.25;5262379;28;20427;-74
2022/10/04 12:41:44;;;;;;;8.90;3.60;;;;;;;26.61;33.79;101778.03;5262237;28;20045;-72
2022/10/04 12:44:34;;;;;;;8.00;3.28;;;;;;;27.64;33.40;101779.22;5225075;28;20481;-73
2022/10/04 12:47:24;;;;;;;8.45;3.08;;;;;;;29.09;30.91;101784.91;5262613;28;20356;-74
2022/10/04 12:50:10;;;;;;;5.38;2.60;;;;;;;29.28;27.99;101781.69;5261519;28;20071;-73
2022/10/04 12:52:59;;;;;;;6.93;2.80;;;;;;;30.26;29.63;101774.13;5261558;28;20051;-72